sensor_id;sensor_type;location;lat;lon;timestamp;P1;durP1;ratioP1;P2;durP2;ratioP2
7477;SDS011;3780;42.424;25.636;2022-11-11T00:01:04;42.28;;;32.22;;
7477;SDS011;3780;42.424;25.636;2022-11-11T00:03:29;48.22;;;32.03;;
7477;SDS011;3780;42.424;25.636;2022-11-11T00:05:59;42.15;;;32.13;;
7477;SDS011;3780;42.424;25.636;2022-11-11T00:08:25;39.25;;;31.77;;
7477;SDS011;3780;42.424;25.636;2022-11-11T00:10:50;44.63;;;32.40;;
7477;SDS011;3780;42.424;25.636;2022-11-11T00:13:15;42.63;;;31.58;;
7477;SDS011;3780;42.424;25.636;2022-11-11T00:15:41;50.28;;;33.40;;
7477;SDS011;3780;42.424;25.636;2022-11-11T00:18:08;42.97;;;32.38;;
7477;SDS011;3780;42.424;25.636;2022-11-11T00:20:52;44.35;;;32.95;;
7477;SDS011;3780;42.424;25.636;2022-11-11T00:23:36;44.33;;;31.65;;
7477;SDS011;3780;42.424;25.636;2022-11-11T00:26:19;45.67;;;32.78;;
7477;SDS011;3780;42.424;25.636;2022-11-11T00:28:45;43.42;;;32.90;;
7477;SDS011;3780;42.424;25.636;2022-11-11T00:31:11;44.97;;;33.50;;
7477;SDS011;3780;42.424;25.636;2022-11-11T00:33:36;47.45;;;33.88;;
7477;SDS011;3780;42.424;25.636;2022-11-11T00:36:02;42.83;;;33.08;;
7477;SDS011;3780;42.424;25.636;2022-11-11T00:38:27;45.75;;;34.15;;
7477;SDS011;3780;42.424;25.636;2022-11-11T00:41:15;47.25;;;33.47;;
7477;SDS011;3780;42.424;25.636;2022-11-11T00:43:41;49.33;;;34.00;;
7477;SDS011;3780;42.424;25.636;2022-11-11T00:46:06;44.25;;;33.60;;
7477;SDS011;3780;42.424;25.636;2022-11-11T00:48:50;48.30;;;35.58;;
7477;SDS011;3780;42.424;25.636;2022-11-11T00:51:34;46.03;;;34.38;;
7477;SDS011;3780;42.424;25.636;2022-11-11T00:54:00;46.90;;;35.50;;
7477;SDS011;3780;42.424;25.636;2022-11-11T00:56:25;48.95;;;35.13;;
7477;SDS011;3780;42.424;25.636;2022-11-11T00:58:51;45.58;;;34.42;;
7477;SDS011;3780;42.424;25.636;2022-11-11T01:01:16;43.40;;;32.90;;
7477;SDS011;3780;42.424;25.636;2022-11-11T01:03:42;44.63;;;33.78;;
7477;SDS011;3780;42.424;25.636;2022-11-11T01:06:08;46.55;;;33.45;;
7477;SDS011;3780;42.424;25.636;2022-11-11T01:08:34;50.47;;;36.40;;
7477;SDS011;3780;42.424;25.636;2022-11-11T01:10:59;50.38;;;36.03;;
7477;SDS011;3780;42.424;25.636;2022-11-11T01:13:25;50.28;;;36.40;;
7477;SDS011;3780;42.424;25.636;2022-11-11T01:15:52;49.70;;;34.63;;
7477;SDS011;3780;42.424;25.636;2022-11-11T01:18:19;46.45;;;34.42;;
7477;SDS011;3780;42.424;25.636;2022-11-11T01:20:44;49.30;;;34.67;;
7477;SDS011;3780;42.424;25.636;2022-11-11T01:23:10;47.42;;;34.22;;
7477;SDS011;3780;42.424;25.636;2022-11-11T01:25:36;44.35;;;34.08;;
7477;SDS011;3780;42.424;25.636;2022-11-11T01:28:02;44.72;;;35.80;;
7477;SDS011;3780;42.424;25.636;2022-11-11T01:30:28;47.97;;;37.15;;
7477;SDS011;3780;42.424;25.636;2022-11-11T01:32:55;50.10;;;36.75;;
7477;SDS011;3780;42.424;25.636;2022-11-11T01:35:20;50.45;;;35.53;;
7477;SDS011;3780;42.424;25.636;2022-11-11T01:37:45;44.78;;;33.30;;
7477;SDS011;3780;42.424;25.636;2022-11-11T01:40:11;50.53;;;35.45;;
7477;SDS011;3780;42.424;25.636;2022-11-11T01:42:48;48.35;;;34.70;;
7477;SDS011;3780;42.424;25.636;2022-11-11T01:47:58;45.08;;;34.70;;
7477;SDS011;3780;42.424;25.636;2022-11-11T01:50:41;50.78;;;36.90;;
7477;SDS011;3780;42.424;25.636;2022-11-11T01:53:07;49.13;;;34.72;;
7477;SDS011;3780;42.424;25.636;2022-11-11T01:55:32;53.63;;;36.58;;
7477;SDS011;3780;42.424;25.636;2022-11-11T01:57:59;49.25;;;36.35;;
7477;SDS011;3780;42.424;25.636;2022-11-11T02:00:25;47.90;;;35.35;;
7477;SDS011;3780;42.424;25.636;2022-11-11T02:02:52;48.35;;;36.28;;
7477;SDS011;3780;42.424;25.636;2022-11-11T02:05:19;51.05;;;35.72;;
7477;SDS011;3780;42.424;25.636;2022-11-11T02:08:04;46.78;;;35.42;;
7477;SDS011;3780;42.424;25.636;2022-11-11T02:10:32;48.10;;;34.78;;
7477;SDS011;3780;42.424;25.636;2022-11-11T02:12:57;53.13;;;37.28;;
7477;SDS011;3780;42.424;25.636;2022-11-11T02:15:41;51.72;;;37.10;;
7477;SDS011;3780;42.424;25.636;2022-11-11T02:18:07;50.45;;;37.40;;
7477;SDS011;3780;42.424;25.636;2022-11-11T02:20:39;47.67;;;36.90;;
7477;SDS011;3780;42.424;25.636;2022-11-11T02:23:08;49.05;;;37.20;;
7477;SDS011;3780;42.424;25.636;2022-11-11T02:25:35;49.67;;;37.00;;
7477;SDS011;3780;42.424;25.636;2022-11-11T02:28:02;49.17;;;37.53;;
7477;SDS011;3780;42.424;25.636;2022-11-11T02:30:29;47.88;;;35.30;;
7477;SDS011;3780;42.424;25.636;2022-11-11T02:32:54;44.85;;;35.53;;
7477;SDS011;3780;42.424;25.636;2022-11-11T02:35:33;51.58;;;36.78;;
7477;SDS011;3780;42.424;25.636;2022-11-11T02:37:58;45.13;;;35.03;;
7477;SDS011;3780;42.424;25.636;2022-11-11T02:40:30;44.70;;;34.63;;
7477;SDS011;3780;42.424;25.636;2022-11-11T02:42:57;47.58;;;35.78;;
7477;SDS011;3780;42.424;25.636;2022-11-11T02:45:22;45.30;;;35.85;;
7477;SDS011;3780;42.424;25.636;2022-11-11T02:47:47;47.88;;;36.15;;
7477;SDS011;3780;42.424;25.636;2022-11-11T02:50:13;52.85;;;36.08;;
7477;SDS011;3780;42.424;25.636;2022-11-11T02:52:38;44.20;;;34.70;;
7477;SDS011;3780;42.424;25.636;2022-11-11T02:55:04;45.50;;;35.60;;
7477;SDS011;3780;42.424;25.636;2022-11-11T02:57:29;45.15;;;35.10;;
7477;SDS011;3780;42.424;25.636;2022-11-11T02:59:56;51.92;;;36.67;;
7477;SDS011;3780;42.424;25.636;2022-11-11T03:02:22;47.53;;;36.38;;
7477;SDS011;3780;42.424;25.636;2022-11-11T03:04:51;53.05;;;37.75;;
7477;SDS011;3780;42.424;25.636;2022-11-11T03:07:16;47.88;;;36.13;;
7477;SDS011;3780;42.424;25.636;2022-11-11T03:09:41;49.58;;;36.58;;
7477;SDS011;3780;42.424;25.636;2022-11-11T03:12:07;46.92;;;35.25;;
7477;SDS011;3780;42.424;25.636;2022-11-11T03:14:32;47.08;;;35.38;;
7477;SDS011;3780;42.424;25.636;2022-11-11T03:16:57;44.95;;;34.85;;
7477;SDS011;3780;42.424;25.636;2022-11-11T03:19:41;45.35;;;34.25;;
7477;SDS011;3780;42.424;25.636;2022-11-11T03:22:07;45.88;;;35.10;;
7477;SDS011;3780;42.424;25.636;2022-11-11T03:24:32;50.30;;;36.63;;
7477;SDS011;3780;42.424;25.636;2022-11-11T03:27:16;50.08;;;37.63;;
7477;SDS011;3780;42.424;25.636;2022-11-11T03:29:41;50.78;;;37.13;;
7477;SDS011;3780;42.424;25.636;2022-11-11T03:32:07;48.65;;;34.35;;
7477;SDS011;3780;42.424;25.636;2022-11-11T03:34:32;47.78;;;35.53;;
7477;SDS011;3780;42.424;25.636;2022-11-11T03:36:58;44.80;;;35.08;;
7477;SDS011;3780;42.424;25.636;2022-11-11T03:39:41;50.17;;;35.95;;
7477;SDS011;3780;42.424;25.636;2022-11-11T03:42:07;53.05;;;37.72;;
7477;SDS011;3780;42.424;25.636;2022-11-11T03:44:32;48.13;;;35.53;;
7477;SDS011;3780;42.424;25.636;2022-11-11T03:46:57;49.53;;;36.63;;
7477;SDS011;3780;42.424;25.636;2022-11-11T03:49:23;49.60;;;36.97;;
7477;SDS011;3780;42.424;25.636;2022-11-11T03:51:48;47.72;;;36.22;;
7477;SDS011;3780;42.424;25.636;2022-11-11T03:54:13;50.40;;;37.05;;
7477;SDS011;3780;42.424;25.636;2022-11-11T03:56:39;53.08;;;37.40;;
7477;SDS011;3780;42.424;25.636;2022-11-11T03:59:04;44.83;;;35.33;;
7477;SDS011;3780;42.424;25.636;2022-11-11T04:01:29;49.40;;;36.25;;
7477;SDS011;3780;42.424;25.636;2022-11-11T04:04:13;47.40;;;36.05;;
7477;SDS011;3780;42.424;25.636;2022-11-11T04:06:57;54.20;;;37.50;;
7477;SDS011;3780;42.424;25.636;2022-11-11T04:09:41;51.15;;;37.10;;
7477;SDS011;3780;42.424;25.636;2022-11-11T04:12:24;52.58;;;38.20;;
7477;SDS011;3780;42.424;25.636;2022-11-11T04:14:50;47.13;;;36.10;;
7477;SDS011;3780;42.424;25.636;2022-11-11T04:17:34;53.53;;;39.20;;
7477;SDS011;3780;42.424;25.636;2022-11-11T04:19:59;49.17;;;38.08;;
7477;SDS011;3780;42.424;25.636;2022-11-11T04:22:43;50.50;;;36.30;;
7477;SDS011;3780;42.424;25.636;2022-11-11T04:25:08;51.97;;;39.22;;
7477;SDS011;3780;42.424;25.636;2022-11-11T04:27:56;59.83;;;41.40;;
7477;SDS011;3780;42.424;25.636;2022-11-11T04:30:39;59.97;;;41.90;;
7477;SDS011;3780;42.424;25.636;2022-11-11T04:33:05;58.60;;;40.72;;
7477;SDS011;3780;42.424;25.636;2022-11-11T04:35:30;55.75;;;40.30;;
7477;SDS011;3780;42.424;25.636;2022-11-11T04:37:58;55.63;;;40.30;;
7477;SDS011;3780;42.424;25.636;2022-11-11T04:40:42;53.80;;;38.95;;
7477;SDS011;3780;42.424;25.636;2022-11-11T04:43:26;60.03;;;40.10;;
7477;SDS011;3780;42.424;25.636;2022-11-11T04:45:52;49.08;;;38.13;;
7477;SDS011;3780;42.424;25.636;2022-11-11T04:48:17;49.13;;;36.75;;
7477;SDS011;3780;42.424;25.636;2022-11-11T04:50:43;62.60;;;39.28;;
7477;SDS011;3780;42.424;25.636;2022-11-11T04:53:10;54.67;;;37.80;;
7477;SDS011;3780;42.424;25.636;2022-11-11T04:55:36;56.13;;;39.28;;
7477;SDS011;3780;42.424;25.636;2022-11-11T04:58:21;57.58;;;38.13;;
7477;SDS011;3780;42.424;25.636;2022-11-11T05:00:46;52.28;;;38.95;;
7477;SDS011;3780;42.424;25.636;2022-11-11T05:03:12;54.10;;;40.50;;
7477;SDS011;3780;42.424;25.636;2022-11-11T05:05:44;61.30;;;41.30;;
7477;SDS011;3780;42.424;25.636;2022-11-11T05:08:28;52.45;;;40.28;;
7477;SDS011;3780;42.424;25.636;2022-11-11T05:11:12;58.13;;;41.75;;
7477;SDS011;3780;42.424;25.636;2022-11-11T05:13:37;58.83;;;43.53;;
7477;SDS011;3780;42.424;25.636;2022-11-11T05:16:22;60.47;;;44.38;;
7477;SDS011;3780;42.424;25.636;2022-11-11T05:19:09;72.85;;;46.88;;
7477;SDS011;3780;42.424;25.636;2022-11-11T05:21:53;71.50;;;46.58;;
7477;SDS011;3780;42.424;25.636;2022-11-11T05:24:21;83.70;;;49.55;;
7477;SDS011;3780;42.424;25.636;2022-11-11T05:27:05;75.15;;;49.03;;
7477;SDS011;3780;42.424;25.636;2022-11-11T05:29:30;87.95;;;54.40;;
7477;SDS011;3780;42.424;25.636;2022-11-11T05:31:55;90.43;;;57.78;;
7477;SDS011;3780;42.424;25.636;2022-11-11T05:34:21;88.75;;;56.63;;
7477;SDS011;3780;42.424;25.636;2022-11-11T05:36:46;93.70;;;56.75;;
7477;SDS011;3780;42.424;25.636;2022-11-11T05:39:11;96.10;;;58.45;;
7477;SDS011;3780;42.424;25.636;2022-11-11T05:41:37;85.30;;;59.05;;
7477;SDS011;3780;42.424;25.636;2022-11-11T05:44:02;83.00;;;52.80;;
7477;SDS011;3780;42.424;25.636;2022-11-11T05:46:27;90.10;;;54.05;;
7477;SDS011;3780;42.424;25.636;2022-11-11T05:48:53;82.95;;;50.30;;
7477;SDS011;3780;42.424;25.636;2022-11-11T05:51:36;94.40;;;57.65;;
7477;SDS011;3780;42.424;25.636;2022-11-11T05:54:02;76.50;;;47.85;;
7477;SDS011;3780;42.424;25.636;2022-11-11T05:56:27;82.18;;;48.60;;
7477;SDS011;3780;42.424;25.636;2022-11-11T05:58:52;82.85;;;47.83;;
7477;SDS011;3780;42.424;25.636;2022-11-11T06:01:18;82.93;;;47.45;;
7477;SDS011;3780;42.424;25.636;2022-11-11T06:03:43;94.95;;;58.33;;
7477;SDS011;3780;42.424;25.636;2022-11-11T06:06:08;84.32;;;49.35;;
7477;SDS011;3780;42.424;25.636;2022-11-11T06:08:34;85.93;;;52.90;;
7477;SDS011;3780;42.424;25.636;2022-11-11T06:10:59;78.75;;;49.45;;
7477;SDS011;3780;42.424;25.636;2022-11-11T06:13:24;85.82;;;49.45;;
7477;SDS011;3780;42.424;25.636;2022-11-11T06:15:49;76.22;;;45.75;;
7477;SDS011;3780;42.424;25.636;2022-11-11T06:18:15;80.55;;;48.85;;
7477;SDS011;3780;42.424;25.636;2022-11-11T06:20:40;89.95;;;49.75;;
7477;SDS011;3780;42.424;25.636;2022-11-11T06:23:05;103.90;;;48.03;;
7477;SDS011;3780;42.424;25.636;2022-11-11T06:25:32;85.93;;;45.75;;
7477;SDS011;3780;42.424;25.636;2022-11-11T06:28:17;163.27;;;47.78;;
7477;SDS011;3780;42.424;25.636;2022-11-11T06:30:42;82.88;;;38.83;;
7477;SDS011;3780;42.424;25.636;2022-11-11T06:33:08;72.63;;;39.75;;
7477;SDS011;3780;42.424;25.636;2022-11-11T06:35:37;62.90;;;38.42;;
7477;SDS011;3780;42.424;25.636;2022-11-11T06:38:03;68.22;;;40.78;;
7477;SDS011;3780;42.424;25.636;2022-11-11T06:40:29;93.93;;;46.05;;
7477;SDS011;3780;42.424;25.636;2022-11-11T06:42:56;82.65;;;45.70;;
7477;SDS011;3780;42.424;25.636;2022-11-11T06:45:22;84.57;;;41.75;;
7477;SDS011;3780;42.424;25.636;2022-11-11T06:47:48;79.93;;;43.30;;
7477;SDS011;3780;42.424;25.636;2022-11-11T06:50:13;105.40;;;49.67;;
7477;SDS011;3780;42.424;25.636;2022-11-11T06:52:38;91.75;;;47.85;;
7477;SDS011;3780;42.424;25.636;2022-11-11T06:55:04;121.30;;;57.55;;
7477;SDS011;3780;42.424;25.636;2022-11-11T06:57:29;89.22;;;47.85;;
7477;SDS011;3780;42.424;25.636;2022-11-11T06:59:54;91.30;;;47.72;;
7477;SDS011;3780;42.424;25.636;2022-11-11T07:02:20;89.70;;;47.65;;
7477;SDS011;3780;42.424;25.636;2022-11-11T07:04:45;87.90;;;46.35;;
7477;SDS011;3780;42.424;25.636;2022-11-11T07:07:10;91.15;;;45.75;;
7477;SDS011;3780;42.424;25.636;2022-11-11T07:09:36;77.47;;;43.60;;
7477;SDS011;3780;42.424;25.636;2022-11-11T07:12:01;81.20;;;43.58;;
7477;SDS011;3780;42.424;25.636;2022-11-11T07:14:26;100.63;;;46.00;;
7477;SDS011;3780;42.424;25.636;2022-11-11T07:16:52;100.18;;;49.10;;
7477;SDS011;3780;42.424;25.636;2022-11-11T07:19:17;119.43;;;49.30;;
7477;SDS011;3780;42.424;25.636;2022-11-11T07:21:42;103.60;;;47.05;;
7477;SDS011;3780;42.424;25.636;2022-11-11T07:24:07;90.22;;;45.05;;
7477;SDS011;3780;42.424;25.636;2022-11-11T07:26:33;83.45;;;43.95;;
7477;SDS011;3780;42.424;25.636;2022-11-11T07:28:58;102.10;;;49.35;;
7477;SDS011;3780;42.424;25.636;2022-11-11T07:31:23;101.57;;;49.88;;
7477;SDS011;3780;42.424;25.636;2022-11-11T07:33:49;100.50;;;45.72;;
7477;SDS011;3780;42.424;25.636;2022-11-11T07:36:14;111.75;;;47.42;;
7477;SDS011;3780;42.424;25.636;2022-11-11T07:38:39;95.85;;;44.15;;
7477;SDS011;3780;42.424;25.636;2022-11-11T07:41:05;108.60;;;47.95;;
7477;SDS011;3780;42.424;25.636;2022-11-11T07:43:30;92.78;;;44.35;;
7477;SDS011;3780;42.424;25.636;2022-11-11T07:45:55;86.00;;;41.47;;
7477;SDS011;3780;42.424;25.636;2022-11-11T07:48:21;75.53;;;41.28;;
7477;SDS011;3780;42.424;25.636;2022-11-11T07:50:46;71.88;;;41.47;;
7477;SDS011;3780;42.424;25.636;2022-11-11T07:53:11;79.43;;;45.28;;
7477;SDS011;3780;42.424;25.636;2022-11-11T07:55:36;80.50;;;45.72;;
7477;SDS011;3780;42.424;25.636;2022-11-11T07:58:02;88.05;;;42.42;;
7477;SDS011;3780;42.424;25.636;2022-11-11T08:00:27;90.03;;;43.88;;
7477;SDS011;3780;42.424;25.636;2022-11-11T08:02:52;83.57;;;42.20;;
7477;SDS011;3780;42.424;25.636;2022-11-11T08:05:18;131.88;;;75.22;;
7477;SDS011;3780;42.424;25.636;2022-11-11T08:07:43;108.13;;;61.03;;
7477;SDS011;3780;42.424;25.636;2022-11-11T08:10:09;93.30;;;52.55;;
7477;SDS011;3780;42.424;25.636;2022-11-11T08:12:35;94.55;;;53.80;;
7477;SDS011;3780;42.424;25.636;2022-11-11T08:15:18;108.90;;;52.50;;
7477;SDS011;3780;42.424;25.636;2022-11-11T08:17:44;101.32;;;51.47;;
7477;SDS011;3780;42.424;25.636;2022-11-11T08:20:09;107.43;;;58.55;;
7477;SDS011;3780;42.424;25.636;2022-11-11T08:22:38;102.10;;;54.45;;
7477;SDS011;3780;42.424;25.636;2022-11-11T08:25:04;97.90;;;48.80;;
7477;SDS011;3780;42.424;25.636;2022-11-11T08:27:30;93.88;;;57.63;;
7477;SDS011;3780;42.424;25.636;2022-11-11T08:29:55;84.20;;;44.28;;
7477;SDS011;3780;42.424;25.636;2022-11-11T08:32:20;104.35;;;53.90;;
7477;SDS011;3780;42.424;25.636;2022-11-11T08:34:46;92.15;;;48.47;;
7477;SDS011;3780;42.424;25.636;2022-11-11T08:37:11;85.00;;;43.70;;
7477;SDS011;3780;42.424;25.636;2022-11-11T08:39:36;84.80;;;46.20;;
7477;SDS011;3780;42.424;25.636;2022-11-11T08:42:01;83.63;;;46.25;;
7477;SDS011;3780;42.424;25.636;2022-11-11T08:44:27;73.18;;;42.78;;
7477;SDS011;3780;42.424;25.636;2022-11-11T08:46:52;79.88;;;41.35;;
7477;SDS011;3780;42.424;25.636;2022-11-11T08:49:17;74.03;;;41.08;;
7477;SDS011;3780;42.424;25.636;2022-11-11T08:51:43;74.95;;;41.92;;
7477;SDS011;3780;42.424;25.636;2022-11-11T08:54:08;73.82;;;41.25;;
7477;SDS011;3780;42.424;25.636;2022-11-11T08:56:33;84.60;;;44.65;;
7477;SDS011;3780;42.424;25.636;2022-11-11T08:58:59;81.80;;;46.50;;
7477;SDS011;3780;42.424;25.636;2022-11-11T09:01:24;80.90;;;47.33;;
7477;SDS011;3780;42.424;25.636;2022-11-11T09:03:49;85.60;;;51.03;;
7477;SDS011;3780;42.424;25.636;2022-11-11T09:06:15;92.43;;;46.78;;
7477;SDS011;3780;42.424;25.636;2022-11-11T09:08:41;76.78;;;47.85;;
7477;SDS011;3780;42.424;25.636;2022-11-11T09:11:06;78.60;;;44.50;;
7477;SDS011;3780;42.424;25.636;2022-11-11T09:13:31;69.10;;;41.60;;
7477;SDS011;3780;42.424;25.636;2022-11-11T09:15:57;70.32;;;41.67;;
7477;SDS011;3780;42.424;25.636;2022-11-11T09:18:23;68.40;;;43.05;;
7477;SDS011;3780;42.424;25.636;2022-11-11T09:20:49;71.13;;;42.30;;
7477;SDS011;3780;42.424;25.636;2022-11-11T09:23:14;71.97;;;41.90;;
7477;SDS011;3780;42.424;25.636;2022-11-11T09:25:39;75.50;;;41.83;;
7477;SDS011;3780;42.424;25.636;2022-11-11T09:28:04;73.15;;;43.50;;
7477;SDS011;3780;42.424;25.636;2022-11-11T09:30:30;64.00;;;40.03;;
7477;SDS011;3780;42.424;25.636;2022-11-11T09:33:00;68.10;;;41.38;;
7477;SDS011;3780;42.424;25.636;2022-11-11T09:35:25;74.95;;;41.72;;
7477;SDS011;3780;42.424;25.636;2022-11-11T09:37:57;76.93;;;41.22;;
7477;SDS011;3780;42.424;25.636;2022-11-11T09:40:24;75.63;;;40.38;;
7477;SDS011;3780;42.424;25.636;2022-11-11T09:50:41;61.83;;;38.55;;
7477;SDS011;3780;42.424;25.636;2022-11-11T09:53:16;60.90;;;39.00;;
7477;SDS011;3780;42.424;25.636;2022-11-11T09:55:51;63.75;;;39.88;;
7477;SDS011;3780;42.424;25.636;2022-11-11T10:04:00;59.05;;;39.95;;
7477;SDS011;3780;42.424;25.636;2022-11-11T10:06:30;66.40;;;39.25;;
7477;SDS011;3780;42.424;25.636;2022-11-11T10:09:00;72.90;;;40.80;;
7477;SDS011;3780;42.424;25.636;2022-11-11T10:11:42;68.05;;;40.17;;
7477;SDS011;3780;42.424;25.636;2022-11-11T10:14:10;59.78;;;39.03;;
7477;SDS011;3780;42.424;25.636;2022-11-11T10:16:53;78.50;;;41.72;;
7477;SDS011;3780;42.424;25.636;2022-11-11T10:24:16;61.47;;;39.33;;
7477;SDS011;3780;42.424;25.636;2022-11-11T10:26:46;55.50;;;38.78;;
7477;SDS011;3780;42.424;25.636;2022-11-11T10:29:17;62.75;;;40.17;;
7477;SDS011;3780;42.424;25.636;2022-11-11T10:31:44;67.20;;;41.03;;
7477;SDS011;3780;42.424;25.636;2022-11-11T10:34:12;66.53;;;40.63;;
7477;SDS011;3780;42.424;25.636;2022-11-11T10:36:42;72.38;;;42.58;;
7477;SDS011;3780;42.424;25.636;2022-11-11T10:39:08;76.97;;;43.08;;
7477;SDS011;3780;42.424;25.636;2022-11-11T10:41:48;77.82;;;44.13;;
7477;SDS011;3780;42.424;25.636;2022-11-11T10:44:21;80.90;;;46.35;;
7477;SDS011;3780;42.424;25.636;2022-11-11T10:49:35;79.85;;;48.03;;
7477;SDS011;3780;42.424;25.636;2022-11-11T10:52:04;93.03;;;48.97;;
7477;SDS011;3780;42.424;25.636;2022-11-11T10:54:44;73.10;;;48.28;;
7477;SDS011;3780;42.424;25.636;2022-11-11T10:57:13;84.13;;;50.13;;
7477;SDS011;3780;42.424;25.636;2022-11-11T10:59:45;88.37;;;51.63;;
7477;SDS011;3780;42.424;25.636;2022-11-11T11:02:22;87.38;;;52.20;;
7477;SDS011;3780;42.424;25.636;2022-11-11T11:04:51;87.95;;;52.00;;
7477;SDS011;3780;42.424;25.636;2022-11-11T11:07:21;90.03;;;51.47;;
7477;SDS011;3780;42.424;25.636;2022-11-11T11:14:40;85.72;;;46.65;;
7477;SDS011;3780;42.424;25.636;2022-11-11T11:17:12;72.53;;;46.28;;
7477;SDS011;3780;42.424;25.636;2022-11-11T11:22:04;79.78;;;46.53;;
7477;SDS011;3780;42.424;25.636;2022-11-11T11:24:31;66.93;;;39.15;;
7477;SDS011;3780;42.424;25.636;2022-11-11T11:27:00;44.35;;;27.45;;
7477;SDS011;3780;42.424;25.636;2022-11-11T11:29:29;45.47;;;27.90;;
7477;SDS011;3780;42.424;25.636;2022-11-11T11:32:09;45.33;;;25.27;;
7477;SDS011;3780;42.424;25.636;2022-11-11T11:34:45;42.67;;;27.13;;
7477;SDS011;3780;42.424;25.636;2022-11-11T11:37:11;33.67;;;19.52;;
7477;SDS011;3780;42.424;25.636;2022-11-11T11:39:37;30.00;;;14.63;;
7477;SDS011;3780;42.424;25.636;2022-11-11T11:42:03;9.82;;;7.55;;
7477;SDS011;3780;42.424;25.636;2022-11-11T11:44:29;13.43;;;10.35;;
7477;SDS011;3780;42.424;25.636;2022-11-11T11:49:43;15.80;;;8.85;;
7477;SDS011;3780;42.424;25.636;2022-11-11T11:59:51;6.00;;;3.60;;
7477;SDS011;3780;42.424;25.636;2022-11-11T12:04:53;10.27;;;4.35;;
7477;SDS011;3780;42.424;25.636;2022-11-11T12:10:02;7.32;;;4.05;;
7477;SDS011;3780;42.424;25.636;2022-11-11T12:20:28;8.13;;;3.35;;
7477;SDS011;3780;42.424;25.636;2022-11-11T12:30:47;9.25;;;3.95;;
7477;SDS011;3780;42.424;25.636;2022-11-11T12:35:54;10.63;;;3.13;;
7477;SDS011;3780;42.424;25.636;2022-11-11T12:43:39;5.50;;;2.95;;
7477;SDS011;3780;42.424;25.636;2022-11-11T12:51:35;4.38;;;3.15;;
7477;SDS011;3780;42.424;25.636;2022-11-11T13:02:19;8.38;;;4.28;;
7477;SDS011;3780;42.424;25.636;2022-11-11T13:12:20;12.18;;;3.40;;
7477;SDS011;3780;42.424;25.636;2022-11-11T13:17:15;6.75;;;3.58;;
7477;SDS011;3780;42.424;25.636;2022-11-11T13:19:57;5.00;;;3.05;;
7477;SDS011;3780;42.424;25.636;2022-11-11T13:22:24;7.32;;;3.22;;
7477;SDS011;3780;42.424;25.636;2022-11-11T13:24:50;7.90;;;3.13;;
7477;SDS011;3780;42.424;25.636;2022-11-11T13:27:25;3.80;;;2.78;;
7477;SDS011;3780;42.424;25.636;2022-11-11T13:32:30;9.90;;;3.05;;
7477;SDS011;3780;42.424;25.636;2022-11-11T13:34:58;5.97;;;2.63;;
7477;SDS011;3780;42.424;25.636;2022-11-11T13:37:27;14.25;;;3.30;;
7477;SDS011;3780;42.424;25.636;2022-11-11T13:39:56;7.97;;;2.60;;
7477;SDS011;3780;42.424;25.636;2022-11-11T13:42:26;10.50;;;2.50;;
7477;SDS011;3780;42.424;25.636;2022-11-11T13:44:53;5.95;;;2.42;;
7477;SDS011;3780;42.424;25.636;2022-11-11T13:47:20;9.93;;;3.38;;
7477;SDS011;3780;42.424;25.636;2022-11-11T13:49:57;5.07;;;2.13;;
7477;SDS011;3780;42.424;25.636;2022-11-11T13:52:24;4.82;;;2.22;;
7477;SDS011;3780;42.424;25.636;2022-11-11T13:54:57;14.35;;;3.92;;
7477;SDS011;3780;42.424;25.636;2022-11-11T13:57:24;11.73;;;2.08;;
7477;SDS011;3780;42.424;25.636;2022-11-11T14:00:03;8.20;;;2.40;;
7477;SDS011;3780;42.424;25.636;2022-11-11T14:12:42;7.32;;;4.60;;
7477;SDS011;3780;42.424;25.636;2022-11-11T14:17:51;9.57;;;4.53;;
7477;SDS011;3780;42.424;25.636;2022-11-11T14:25:42;6.10;;;2.05;;
7477;SDS011;3780;42.424;25.636;2022-11-11T14:30:45;9.45;;;3.20;;
7477;SDS011;3780;42.424;25.636;2022-11-11T14:35:38;7.18;;;2.80;;
7477;SDS011;3780;42.424;25.636;2022-11-11T14:40:40;11.98;;;3.28;;
7477;SDS011;3780;42.424;25.636;2022-11-11T14:45:52;3.45;;;2.40;;
7477;SDS011;3780;42.424;25.636;2022-11-11T14:51:02;14.13;;;2.78;;
7477;SDS011;3780;42.424;25.636;2022-11-11T14:53:33;6.03;;;2.28;;
7477;SDS011;3780;42.424;25.636;2022-11-11T14:56:00;5.50;;;2.60;;
7477;SDS011;3780;42.424;25.636;2022-11-11T14:58:26;8.55;;;3.08;;
7477;SDS011;3780;42.424;25.636;2022-11-11T15:00:58;7.80;;;2.80;;
7477;SDS011;3780;42.424;25.636;2022-11-11T15:06:16;8.15;;;4.03;;
7477;SDS011;3780;42.424;25.636;2022-11-11T15:16:21;9.55;;;2.85;;
7477;SDS011;3780;42.424;25.636;2022-11-11T15:18:56;7.72;;;3.00;;
7477;SDS011;3780;42.424;25.636;2022-11-11T15:24:09;7.88;;;3.10;;
7477;SDS011;3780;42.424;25.636;2022-11-11T15:26:56;4.47;;;2.40;;
7477;SDS011;3780;42.424;25.636;2022-11-11T15:29:38;7.65;;;2.83;;
7477;SDS011;3780;42.424;25.636;2022-11-11T15:32:11;5.03;;;2.90;;
7477;SDS011;3780;42.424;25.636;2022-11-11T15:34:40;5.82;;;3.63;;
7477;SDS011;3780;42.424;25.636;2022-11-11T15:37:11;3.85;;;2.70;;
7477;SDS011;3780;42.424;25.636;2022-11-11T15:39:41;2.92;;;2.40;;
7477;SDS011;3780;42.424;25.636;2022-11-11T15:42:50;8.05;;;4.00;;
7477;SDS011;3780;42.424;25.636;2022-11-11T15:45:00;6.55;;;3.40;;
7477;SDS011;3780;42.424;25.636;2022-11-11T15:47:27;4.55;;;2.78;;
7477;SDS011;3780;42.424;25.636;2022-11-11T15:49:54;5.47;;;2.70;;
7477;SDS011;3780;42.424;25.636;2022-11-11T15:54:51;4.72;;;2.28;;
7477;SDS011;3780;42.424;25.636;2022-11-11T15:59:55;3.72;;;2.80;;
7477;SDS011;3780;42.424;25.636;2022-11-11T16:02:27;4.45;;;2.33;;
7477;SDS011;3780;42.424;25.636;2022-11-11T16:05:17;2.10;;;1.80;;
7477;SDS011;3780;42.424;25.636;2022-11-11T16:07:43;2.83;;;2.20;;
7477;SDS011;3780;42.424;25.636;2022-11-11T16:10:15;6.25;;;2.50;;
7477;SDS011;3780;42.424;25.636;2022-11-11T16:12:50;2.35;;;2.13;;
7477;SDS011;3780;42.424;25.636;2022-11-11T16:15:21;5.68;;;2.70;;
7477;SDS011;3780;42.424;25.636;2022-11-11T16:17:48;5.30;;;3.25;;
7477;SDS011;3780;42.424;25.636;2022-11-11T16:20:24;6.13;;;3.10;;
7477;SDS011;3780;42.424;25.636;2022-11-11T16:22:49;11.40;;;7.50;;
7477;SDS011;3780;42.424;25.636;2022-11-11T16:25:22;8.70;;;4.93;;
7477;SDS011;3780;42.424;25.636;2022-11-11T16:27:47;8.40;;;4.45;;
7477;SDS011;3780;42.424;25.636;2022-11-11T16:30:14;8.80;;;3.33;;
7477;SDS011;3780;42.424;25.636;2022-11-11T16:32:40;13.15;;;4.18;;
7477;SDS011;3780;42.424;25.636;2022-11-11T16:37:49;4.65;;;2.75;;
7477;SDS011;3780;42.424;25.636;2022-11-11T16:40:25;5.93;;;2.40;;
7477;SDS011;3780;42.424;25.636;2022-11-11T16:42:51;2.88;;;2.05;;
7477;SDS011;3780;42.424;25.636;2022-11-11T16:45:18;1.77;;;1.23;;
7477;SDS011;3780;42.424;25.636;2022-11-11T16:47:45;6.65;;;1.92;;
7477;SDS011;3780;42.424;25.636;2022-11-11T16:50:51;7.55;;;2.20;;
7477;SDS011;3780;42.424;25.636;2022-11-11T16:53:03;3.88;;;1.90;;
7477;SDS011;3780;42.424;25.636;2022-11-11T16:55:30;6.20;;;1.70;;
7477;SDS011;3780;42.424;25.636;2022-11-11T16:58:00;3.30;;;1.90;;
7477;SDS011;3780;42.424;25.636;2022-11-11T17:00:27;8.30;;;2.50;;
7477;SDS011;3780;42.424;25.636;2022-11-11T17:05:50;4.47;;;1.55;;
7477;SDS011;3780;42.424;25.636;2022-11-11T17:08:35;14.32;;;2.28;;
7477;SDS011;3780;42.424;25.636;2022-11-11T17:11:05;8.38;;;1.70;;
7477;SDS011;3780;42.424;25.636;2022-11-11T17:13:31;4.97;;;2.35;;
7477;SDS011;3780;42.424;25.636;2022-11-11T17:15:57;3.13;;;1.77;;
7477;SDS011;3780;42.424;25.636;2022-11-11T17:18:26;6.43;;;3.75;;
7477;SDS011;3780;42.424;25.636;2022-11-11T17:20:52;7.15;;;1.92;;
7477;SDS011;3780;42.424;25.636;2022-11-11T17:23:17;4.05;;;1.50;;